sensor_id;sensor_type;location;lat;lon;timestamp;temperature;humidity
69204;DHT22;56317;27.658;85.326;2022-08-21T00:01:16;21.50;99.90
69204;DHT22;56317;27.658;85.326;2022-08-21T00:03:44;21.50;99.90
69204;DHT22;56317;27.658;85.326;2022-08-21T00:06:11;21.50;99.90
69204;DHT22;56317;27.658;85.326;2022-08-21T00:08:38;21.50;99.90
69204;DHT22;56317;27.658;85.326;2022-08-21T00:11:06;21.50;99.90
69204;DHT22;56317;27.658;85.326;2022-08-21T00:13:33;21.40;99.90
69204;DHT22;56317;27.658;85.326;2022-08-21T00:16:01;21.40;99.90
69204;DHT22;56317;27.658;85.326;2022-08-21T00:18:29;21.40;99.90
69204;DHT22;56317;27.658;85.326;2022-08-21T00:20:56;21.40;99.90
69204;DHT22;56317;27.658;85.326;2022-08-21T00:23:23;21.40;99.90
69204;DHT22;56317;27.658;85.326;2022-08-21T00:25:50;21.40;99.90
69204;DHT22;56317;27.658;85.326;2022-08-21T00:28:18;21.40;99.90
69204;DHT22;56317;27.658;85.326;2022-08-21T00:30:45;21.40;99.90
69204;DHT22;56317;27.658;85.326;2022-08-21T00:33:13;21.40;99.90
69204;DHT22;56317;27.658;85.326;2022-08-21T00:35:42;21.50;99.90
69204;DHT22;56317;27.658;85.326;2022-08-21T00:38:10;21.50;99.90
69204;DHT22;56317;27.658;85.326;2022-08-21T00:40:52;21.60;99.90
69204;DHT22;56317;27.658;85.326;2022-08-21T00:43:24;21.70;99.90
69204;DHT22;56317;27.658;85.326;2022-08-21T00:45:51;21.70;99.90
69204;DHT22;56317;27.658;85.326;2022-08-21T00:48:19;21.80;99.90
69204;DHT22;56317;27.658;85.326;2022-08-21T00:50:56;21.80;99.90
69204;DHT22;56317;27.658;85.326;2022-08-21T00:53:23;22.00;99.90
69204;DHT22;56317;27.658;85.326;2022-08-21T00:55:52;22.10;99.90
69204;DHT22;56317;27.658;85.326;2022-08-21T00:58:20;22.30;99.90
69204;DHT22;56317;27.658;85.326;2022-08-21T01:00:48;22.40;99.90
69204;DHT22;56317;27.658;85.326;2022-08-21T01:03:19;22.50;99.90
69204;DHT22;56317;27.658;85.326;2022-08-21T01:05:47;22.60;99.90
69204;DHT22;56317;27.658;85.326;2022-08-21T01:08:16;22.60;99.90
69204;DHT22;56317;27.658;85.326;2022-08-21T01:10:44;22.80;99.90
69204;DHT22;56317;27.658;85.326;2022-08-21T01:13:13;22.90;99.90
69204;DHT22;56317;27.658;85.326;2022-08-21T01:15:45;23.00;99.90
69204;DHT22;56317;27.658;85.326;2022-08-21T01:18:16;23.00;99.90
69204;DHT22;56317;27.658;85.326;2022-08-21T01:23:32;23.60;99.90
69204;DHT22;56317;27.658;85.326;2022-08-21T01:25:59;23.80;99.90
69204;DHT22;56317;27.658;85.326;2022-08-21T01:28:27;23.90;99.90
69204;DHT22;56317;27.658;85.326;2022-08-21T01:30:56;24.00;99.90
69204;DHT22;56317;27.658;85.326;2022-08-21T01:33:25;24.10;99.90
69204;DHT22;56317;27.658;85.326;2022-08-21T01:35:52;24.10;99.90
69204;DHT22;56317;27.658;85.326;2022-08-21T01:38:19;24.00;99.90
69204;DHT22;56317;27.658;85.326;2022-08-21T01:40:46;23.90;99.90
69204;DHT22;56317;27.658;85.326;2022-08-21T01:43:13;23.80;99.90
69204;DHT22;56317;27.658;85.326;2022-08-21T01:45:41;23.80;99.90
69204;DHT22;56317;27.658;85.326;2022-08-21T01:48:08;23.80;99.90
69204;DHT22;56317;27.658;85.326;2022-08-21T01:50:38;23.90;99.90
69204;DHT22;56317;27.658;85.326;2022-08-21T01:53:05;24.00;99.90
69204;DHT22;56317;27.658;85.326;2022-08-21T01:55:32;24.10;99.90
69204;DHT22;56317;27.658;85.326;2022-08-21T01:58:00;24.20;99.90
69204;DHT22;56317;27.658;85.326;2022-08-21T02:00:27;24.20;99.90
69204;DHT22;56317;27.658;85.326;2022-08-21T02:02:54;24.30;99.90
69204;DHT22;56317;27.658;85.326;2022-08-21T02:05:22;24.40;99.90
69204;DHT22;56317;27.658;85.326;2022-08-21T02:07:52;24.40;99.90
69204;DHT22;56317;27.658;85.326;2022-08-21T02:10:23;24.50;99.90
69204;DHT22;56317;27.658;85.326;2022-08-21T02:12:50;24.70;99.90
69204;DHT22;56317;27.658;85.326;2022-08-21T02:15:18;24.70;99.90
69204;DHT22;56317;27.658;85.326;2022-08-21T02:17:54;24.80;99.90
69204;DHT22;56317;27.658;85.326;2022-08-21T02:20:33;25.00;99.90
69204;DHT22;56317;27.658;85.326;2022-08-21T02:23:02;25.10;99.90
69204;DHT22;56317;27.658;85.326;2022-08-21T02:25:30;25.30;99.90
69204;DHT22;56317;27.658;85.326;2022-08-21T02:27:59;25.40;99.90
69204;DHT22;56317;27.658;85.326;2022-08-21T02:30:29;25.60;99.90
69204;DHT22;56317;27.658;85.326;2022-08-21T02:32:57;25.80;99.90
69204;DHT22;56317;27.658;85.326;2022-08-21T02:35:26;25.90;99.90
69204;DHT22;56317;27.658;85.326;2022-08-21T02:37:57;26.00;99.90
69204;DHT22;56317;27.658;85.326;2022-08-21T02:40:28;26.10;99.90
69204;DHT22;56317;27.658;85.326;2022-08-21T02:42:59;26.30;99.90
69204;DHT22;56317;27.658;85.326;2022-08-21T02:45:29;26.40;99.90
69204;DHT22;56317;27.658;85.326;2022-08-21T02:48:06;26.70;99.90
69204;DHT22;56317;27.658;85.326;2022-08-21T02:50:42;26.90;99.90
69204;DHT22;56317;27.658;85.326;2022-08-21T02:53:11;27.00;99.90
69204;DHT22;56317;27.658;85.326;2022-08-21T02:55:42;27.00;99.90
69204;DHT22;56317;27.658;85.326;2022-08-21T02:58:16;27.00;99.90
69204;DHT22;56317;27.658;85.326;2022-08-21T03:00:44;27.00;99.90
69204;DHT22;56317;27.658;85.326;2022-08-21T03:03:11;27.10;99.90
69204;DHT22;56317;27.658;85.326;2022-08-21T03:05:41;27.20;99.90
69204;DHT22;56317;27.658;85.326;2022-08-21T03:08:15;27.30;99.90
69204;DHT22;56317;27.658;85.326;2022-08-21T03:10:49;27.50;99.90
69204;DHT22;56317;27.658;85.326;2022-08-21T03:13:20;27.50;99.90
69204;DHT22;56317;27.658;85.326;2022-08-21T03:15:49;27.60;99.80
69204;DHT22;56317;27.658;85.326;2022-08-21T03:18:16;27.70;99.90
69204;DHT22;56317;27.658;85.326;2022-08-21T03:20:44;27.90;99.50
69204;DHT22;56317;27.658;85.326;2022-08-21T03:23:12;27.90;99.40
69204;DHT22;56317;27.658;85.326;2022-08-21T03:25:40;28.10;98.30
69204;DHT22;56317;27.658;85.326;2022-08-21T03:28:10;28.10;97.80
69204;DHT22;56317;27.658;85.326;2022-08-21T03:30:37;28.10;97.60
69204;DHT22;56317;27.658;85.326;2022-08-21T03:33:05;28.20;96.90
69204;DHT22;56317;27.658;85.326;2022-08-21T03:35:33;28.30;96.20
69204;DHT22;56317;27.658;85.326;2022-08-21T03:38:06;28.40;96.80
69204;DHT22;56317;27.658;85.326;2022-08-21T03:40:37;28.50;94.60
69204;DHT22;56317;27.658;85.326;2022-08-21T03:43:07;28.80;95.60
69204;DHT22;56317;27.658;85.326;2022-08-21T03:45:36;29.10;95.90
69204;DHT22;56317;27.658;85.326;2022-08-21T03:48:04;29.40;95.30
69204;DHT22;56317;27.658;85.326;2022-08-21T03:50:36;29.70;94.90
69204;DHT22;56317;27.658;85.326;2022-08-21T03:53:03;29.90;93.70
69204;DHT22;56317;27.658;85.326;2022-08-21T03:55:33;30.10;94.10
69204;DHT22;56317;27.658;85.326;2022-08-21T03:58:02;30.40;93.80
69204;DHT22;56317;27.658;85.326;2022-08-21T04:00:29;30.70;91.50
69204;DHT22;56317;27.658;85.326;2022-08-21T04:02:56;30.90;92.20
69204;DHT22;56317;27.658;85.326;2022-08-21T04:05:24;31.10;92.10
69204;DHT22;56317;27.658;85.326;2022-08-21T04:07:59;31.40;91.50
69204;DHT22;56317;27.658;85.326;2022-08-21T04:10:28;31.60;90.70
69204;DHT22;56317;27.658;85.326;2022-08-21T04:12:56;32.10;90.60
69204;DHT22;56317;27.658;85.326;2022-08-21T04:15:25;32.40;87.10
69204;DHT22;56317;27.658;85.326;2022-08-21T04:17:55;32.30;84.90
69204;DHT22;56317;27.658;85.326;2022-08-21T04:20:22;32.10;84.60
69204;DHT22;56317;27.658;85.326;2022-08-21T04:22:51;32.10;84.70
69204;DHT22;56317;27.658;85.326;2022-08-21T04:25:20;32.60;85.40
69204;DHT22;56317;27.658;85.326;2022-08-21T04:27:47;33.20;83.30
69204;DHT22;56317;27.658;85.326;2022-08-21T04:30:15;33.80;79.60
69204;DHT22;56317;27.658;85.326;2022-08-21T04:32:48;34.10;77.70
69204;DHT22;56317;27.658;85.326;2022-08-21T04:35:18;34.20;76.40
69204;DHT22;56317;27.658;85.326;2022-08-21T04:37:46;34.50;76.10
69204;DHT22;56317;27.658;85.326;2022-08-21T04:40:16;34.80;74.90
69204;DHT22;56317;27.658;85.326;2022-08-21T04:42:53;34.70;73.60
69204;DHT22;56317;27.658;85.326;2022-08-21T04:45:30;34.20;72.00
69204;DHT22;56317;27.658;85.326;2022-08-21T04:47:59;33.40;73.60
69204;DHT22;56317;27.658;85.326;2022-08-21T04:50:52;32.80;74.90
69204;DHT22;56317;27.658;85.326;2022-08-21T04:56:02;31.60;77.30
69204;DHT22;56317;27.658;85.326;2022-08-21T04:58:31;31.20;78.90
69204;DHT22;56317;27.658;85.326;2022-08-21T05:01:00;30.90;79.90
69204;DHT22;56317;27.658;85.326;2022-08-21T05:03:30;31.10;79.80
69204;DHT22;56317;27.658;85.326;2022-08-21T05:05:58;31.40;79.30
69204;DHT22;56317;27.658;85.326;2022-08-21T05:08:27;31.60;79.30
69204;DHT22;56317;27.658;85.326;2022-08-21T05:10:55;31.90;78.70
69204;DHT22;56317;27.658;85.326;2022-08-21T05:13:22;32.20;78.30
69204;DHT22;56317;27.658;85.326;2022-08-21T05:15:49;32.30;76.50
69204;DHT22;56317;27.658;85.326;2022-08-21T05:18:17;32.50;77.30
69204;DHT22;56317;27.658;85.326;2022-08-21T05:20:44;32.80;75.90
69204;DHT22;56317;27.658;85.326;2022-08-21T05:23:13;33.00;75.00
69204;DHT22;56317;27.658;85.326;2022-08-21T05:25:41;33.30;75.00
69204;DHT22;56317;27.658;85.326;2022-08-21T05:28:08;33.90;74.00
69204;DHT22;56317;27.658;85.326;2022-08-21T05:30:37;34.20;72.90
69204;DHT22;56317;27.658;85.326;2022-08-21T05:33:05;34.40;71.10
69204;DHT22;56317;27.658;85.326;2022-08-21T05:35:33;34.30;70.80
69204;DHT22;56317;27.658;85.326;2022-08-21T05:38:02;34.40;70.50
69204;DHT22;56317;27.658;85.326;2022-08-21T05:40:30;34.50;72.00
69204;DHT22;56317;27.658;85.326;2022-08-21T05:42:58;34.50;70.50
69204;DHT22;56317;27.658;85.326;2022-08-21T05:45:30;33.90;69.70
69204;DHT22;56317;27.658;85.326;2022-08-21T05:48:08;33.50;71.00
69204;DHT22;56317;27.658;85.326;2022-08-21T05:50:36;33.70;71.80
69204;DHT22;56317;27.658;85.326;2022-08-21T05:53:05;33.80;71.10
69204;DHT22;56317;27.658;85.326;2022-08-21T05:55:32;33.90;69.70
69204;DHT22;56317;27.658;85.326;2022-08-21T05:57:59;33.60;69.30
69204;DHT22;56317;27.658;85.326;2022-08-21T06:00:26;33.60;70.20
69204;DHT22;56317;27.658;85.326;2022-08-21T06:02:54;33.90;66.60
69204;DHT22;56317;27.658;85.326;2022-08-21T06:05:21;34.30;67.60
69204;DHT22;56317;27.658;85.326;2022-08-21T06:07:48;34.80;65.80
69204;DHT22;56317;27.658;85.326;2022-08-21T06:10:15;34.90;66.40
69204;DHT22;56317;27.658;85.326;2022-08-21T06:12:43;35.00;65.80
69204;DHT22;56317;27.658;85.326;2022-08-21T06:15:10;35.10;63.80
69204;DHT22;56317;27.658;85.326;2022-08-21T06:17:37;35.00;63.40
69204;DHT22;56317;27.658;85.326;2022-08-21T06:20:05;34.80;63.40
69204;DHT22;56317;27.658;85.326;2022-08-21T06:22:32;34.70;63.40
69204;DHT22;56317;27.658;85.326;2022-08-21T06:25:00;35.40;64.30
69204;DHT22;56317;27.658;85.326;2022-08-21T06:27:27;37.90;60.10
69204;DHT22;56317;27.658;85.326;2022-08-21T06:29:55;40.70;55.60
69204;DHT22;56317;27.658;85.326;2022-08-21T06:32:23;42.40;53.80
69204;DHT22;56317;27.658;85.326;2022-08-21T06:34:50;44.00;50.90
69204;DHT22;56317;27.658;85.326;2022-08-21T06:37:18;45.40;47.90
69204;DHT22;56317;27.658;85.326;2022-08-21T06:39:45;46.20;45.40
69204;DHT22;56317;27.658;85.326;2022-08-21T06:42:17;46.40;44.50
69204;DHT22;56317;27.658;85.326;2022-08-21T06:44:44;47.50;43.10
69204;DHT22;56317;27.658;85.326;2022-08-21T06:47:11;48.90;41.20
69204;DHT22;56317;27.658;85.326;2022-08-21T06:49:39;49.50;40.80
69204;DHT22;56317;27.658;85.326;2022-08-21T06:52:13;50.90;39.30
69204;DHT22;56317;27.658;85.326;2022-08-21T06:54:41;51.10;38.30
69204;DHT22;56317;27.658;85.326;2022-08-21T06:57:12;50.80;38.80
69204;DHT22;56317;27.658;85.326;2022-08-21T06:59:39;50.40;38.10
69204;DHT22;56317;27.658;85.326;2022-08-21T07:02:07;49.30;38.90
69204;DHT22;56317;27.658;85.326;2022-08-21T07:04:34;50.00;39.10
69204;DHT22;56317;27.658;85.326;2022-08-21T07:07:01;50.30;37.30
69204;DHT22;56317;27.658;85.326;2022-08-21T07:09:28;50.50;37.40
69204;DHT22;56317;27.658;85.326;2022-08-21T07:11:56;50.90;37.20
69204;DHT22;56317;27.658;85.326;2022-08-21T07:14:24;51.70;37.60
69204;DHT22;56317;27.658;85.326;2022-08-21T07:16:51;50.90;36.00
69204;DHT22;56317;27.658;85.326;2022-08-21T07:19:18;50.30;37.00
69204;DHT22;56317;27.658;85.326;2022-08-21T07:21:46;49.40;37.70
69204;DHT22;56317;27.658;85.326;2022-08-21T07:24:14;48.50;39.10
69204;DHT22;56317;27.658;85.326;2022-08-21T07:26:42;48.20;39.60
69204;DHT22;56317;27.658;85.326;2022-08-21T07:29:09;48.00;40.10
69204;DHT22;56317;27.658;85.326;2022-08-21T07:31:36;48.70;39.70
69204;DHT22;56317;27.658;85.326;2022-08-21T07:34:03;49.80;38.70
69204;DHT22;56317;27.658;85.326;2022-08-21T07:36:30;50.50;38.00
69204;DHT22;56317;27.658;85.326;2022-08-21T07:38:58;50.30;38.00
69204;DHT22;56317;27.658;85.326;2022-08-21T07:41:27;49.10;38.30
69204;DHT22;56317;27.658;85.326;2022-08-21T07:43:56;49.20;39.20
69204;DHT22;56317;27.658;85.326;2022-08-21T07:46:27;50.40;38.10
69204;DHT22;56317;27.658;85.326;2022-08-21T07:48:54;48.70;38.80
69204;DHT22;56317;27.658;85.326;2022-08-21T07:51:25;46.60;41.40
69204;DHT22;56317;27.658;85.326;2022-08-21T07:53:55;48.30;41.30
69204;DHT22;56317;27.658;85.326;2022-08-21T07:56:24;48.50;39.50
69204;DHT22;56317;27.658;85.326;2022-08-21T07:58:51;48.70;40.80
69204;DHT22;56317;27.658;85.326;2022-08-21T08:01:18;47.40;39.80
69204;DHT22;56317;27.658;85.326;2022-08-21T08:03:46;47.50;40.40
69204;DHT22;56317;27.658;85.326;2022-08-21T08:06:14;45.30;41.20
69204;DHT22;56317;27.658;85.326;2022-08-21T08:08:43;43.70;43.30
69204;DHT22;56317;27.658;85.326;2022-08-21T08:11:10;41.80;45.40
69204;DHT22;56317;27.658;85.326;2022-08-21T08:13:43;42.00;46.90
69204;DHT22;56317;27.658;85.326;2022-08-21T08:16:11;41.90;46.80
69204;DHT22;56317;27.658;85.326;2022-08-21T08:18:38;42.90;45.40
69204;DHT22;56317;27.658;85.326;2022-08-21T08:21:05;43.20;45.30
69204;DHT22;56317;27.658;85.326;2022-08-21T08:23:33;43.70;44.40
69204;DHT22;56317;27.658;85.326;2022-08-21T08:26:00;43.00;45.30
69204;DHT22;56317;27.658;85.326;2022-08-21T08:28:32;44.40;44.60
69204;DHT22;56317;27.658;85.326;2022-08-21T08:31:00;46.20;42.10
69204;DHT22;56317;27.658;85.326;2022-08-21T08:33:27;46.40;40.50
69204;DHT22;56317;27.658;85.326;2022-08-21T08:35:55;47.60;40.80
69204;DHT22;56317;27.658;85.326;2022-08-21T08:38:25;45.90;41.40
69204;DHT22;56317;27.658;85.326;2022-08-21T08:43:44;45.60;41.40
69204;DHT22;56317;27.658;85.326;2022-08-21T08:46:31;47.20;40.50
69204;DHT22;56317;27.658;85.326;2022-08-21T08:49:29;48.90;39.40
69204;DHT22;56317;27.658;85.326;2022-08-21T08:54:51;49.80;38.00
69204;DHT22;56317;27.658;85.326;2022-08-21T08:57:23;49.80;37.60
69204;DHT22;56317;27.658;85.326;2022-08-21T09:00:07;50.10;36.70
69204;DHT22;56317;27.658;85.326;2022-08-21T09:02:38;50.60;36.30
69204;DHT22;56317;27.658;85.326;2022-08-21T09:05:07;50.80;36.60
69204;DHT22;56317;27.658;85.326;2022-08-21T09:10:20;51.10;36.50
69204;DHT22;56317;27.658;85.326;2022-08-21T09:19:06;51.40;35.60
69204;DHT22;56317;27.658;85.326;2022-08-21T09:21:40;50.70;35.20
69204;DHT22;56317;27.658;85.326;2022-08-21T09:24:37;50.10;36.20
69204;DHT22;56317;27.658;85.326;2022-08-21T09:27:15;50.30;35.70
69204;DHT22;56317;27.658;85.326;2022-08-21T09:29:46;50.20;36.20
69204;DHT22;56317;27.658;85.326;2022-08-21T09:32:18;50.80;36.70
69204;DHT22;56317;27.658;85.326;2022-08-21T09:35:06;50.20;35.50
69204;DHT22;56317;27.658;85.326;2022-08-21T09:37:59;49.50;36.40
69204;DHT22;56317;27.658;85.326;2022-08-21T09:40:39;49.50;36.90
69204;DHT22;56317;27.658;85.326;2022-08-21T09:45:36;50.80;35.40
69204;DHT22;56317;27.658;85.326;2022-08-21T09:48:13;50.40;35.80
69204;DHT22;56317;27.658;85.326;2022-08-21T09:50:45;50.80;37.00
69204;DHT22;56317;27.658;85.326;2022-08-21T09:53:21;51.10;35.60
69204;DHT22;56317;27.658;85.326;2022-08-21T09:58:41;50.50;35.90
69204;DHT22;56317;27.658;85.326;2022-08-21T10:01:14;49.60;35.90
69204;DHT22;56317;27.658;85.326;2022-08-21T10:03:42;49.60;36.40
69204;DHT22;56317;27.658;85.326;2022-08-21T10:06:10;48.50;36.60
69204;DHT22;56317;27.658;85.326;2022-08-21T10:08:47;48.00;37.60
69204;DHT22;56317;27.658;85.326;2022-08-21T10:11:16;49.10;37.40
69204;DHT22;56317;27.658;85.326;2022-08-21T10:14:02;49.70;36.30
69204;DHT22;56317;27.658;85.326;2022-08-21T10:19:43;50.80;35.40
69204;DHT22;56317;27.658;85.326;2022-08-21T10:22:36;51.10;35.40
69204;DHT22;56317;27.658;85.326;2022-08-21T10:25:26;50.50;35.00
69204;DHT22;56317;27.658;85.326;2022-08-21T10:30:56;49.30;36.10
69204;DHT22;56317;27.658;85.326;2022-08-21T10:36:20;43.40;40.80
69204;DHT22;56317;27.658;85.326;2022-08-21T10:44:52;45.60;39.90
69204;DHT22;56317;27.658;85.326;2022-08-21T10:50:07;47.70;37.90
69204;DHT22;56317;27.658;85.326;2022-08-21T10:55:22;47.30;37.70
69204;DHT22;56317;27.658;85.326;2022-08-21T10:58:01;47.00;38.10
69204;DHT22;56317;27.658;85.326;2022-08-21T11:00:45;47.00;38.20
69204;DHT22;56317;27.658;85.326;2022-08-21T11:03:29;46.60;38.10
69204;DHT22;56317;27.658;85.326;2022-08-21T11:06:08;46.40;38.70
69204;DHT22;56317;27.658;85.326;2022-08-21T11:08:42;46.40;38.90
69204;DHT22;56317;27.658;85.326;2022-08-21T11:14:07;46.00;39.10
69204;DHT22;56317;27.658;85.326;2022-08-21T11:25:03;44.90;40.60
69204;DHT22;56317;27.658;85.326;2022-08-21T11:30:15;44.10;41.20
69204;DHT22;56317;27.658;85.326;2022-08-21T11:43:51;39.10;46.60
69204;DHT22;56317;27.658;85.326;2022-08-21T11:46:53;35.60;52.00
69204;DHT22;56317;27.658;85.326;2022-08-21T11:50:03;33.10;56.20
69204;DHT22;56317;27.658;85.326;2022-08-21T11:52:38;31.40;60.90
69204;DHT22;56317;27.658;85.326;2022-08-21T12:00:31;29.10;69.00
69204;DHT22;56317;27.658;85.326;2022-08-21T12:03:23;28.50;70.70
69204;DHT22;56317;27.658;85.326;2022-08-21T12:06:12;27.90;71.60
69204;DHT22;56317;27.658;85.326;2022-08-21T12:08:44;27.50;74.80
69204;DHT22;56317;27.658;85.326;2022-08-21T12:14:21;26.70;79.30
69204;DHT22;56317;27.658;85.326;2022-08-21T12:16:48;26.50;80.30
69204;DHT22;56317;27.658;85.326;2022-08-21T12:22:12;26.10;82.80
69204;DHT22;56317;27.658;85.326;2022-08-21T12:24:43;25.90;84.40
69204;DHT22;56317;27.658;85.326;2022-08-21T12:27:19;25.70;86.40
69204;DHT22;56317;27.658;85.326;2022-08-21T12:29:50;25.50;88.30
69204;DHT22;56317;27.658;85.326;2022-08-21T12:35:16;25.20;90.80
69204;DHT22;56317;27.658;85.326;2022-08-21T12:37:45;25.00;91.40
69204;DHT22;56317;27.658;85.326;2022-08-21T12:42:51;24.80;92.90
69204;DHT22;56317;27.658;85.326;2022-08-21T12:45:41;24.70;94.00
69204;DHT22;56317;27.658;85.326;2022-08-21T12:51:22;24.60;95.30
69204;DHT22;56317;27.658;85.326;2022-08-21T12:53:57;24.50;96.20
69204;DHT22;56317;27.658;85.326;2022-08-21T12:56:31;24.50;97.00
69204;DHT22;56317;27.658;85.326;2022-08-21T12:59:11;24.50;97.50
69204;DHT22;56317;27.658;85.326;2022-08-21T13:01:51;24.30;98.00
69204;DHT22;56317;27.658;85.326;2022-08-21T13:04:32;24.30;98.80
69204;DHT22;56317;27.658;85.326;2022-08-21T13:07:01;24.30;99.40
69204;DHT22;56317;27.658;85.326;2022-08-21T13:09:32;24.10;99.90
69204;DHT22;56317;27.658;85.326;2022-08-21T13:11:59;24.00;99.90
69204;DHT22;56317;27.658;85.326;2022-08-21T13:14:39;23.90;99.90
69204;DHT22;56317;27.658;85.326;2022-08-21T13:17:09;23.80;99.90
69204;DHT22;56317;27.658;85.326;2022-08-21T13:19:36;23.70;99.90
69204;DHT22;56317;27.658;85.326;2022-08-21T13:22:05;23.70;99.90
69204;DHT22;56317;27.658;85.326;2022-08-21T13:24:38;23.60;99.90
69204;DHT22;56317;27.658;85.326;2022-08-21T13:27:27;23.60;99.90
69204;DHT22;56317;27.658;85.326;2022-08-21T13:30:17;23.50;99.90
69204;DHT22;56317;27.658;85.326;2022-08-21T13:32:49;23.50;99.90
69204;DHT22;56317;27.658;85.326;2022-08-21T13:35:25;23.30;99.90
69204;DHT22;56317;27.658;85.326;2022-08-21T13:37:54;23.40;99.90
69204;DHT22;56317;27.658;85.326;2022-08-21T13:40:31;23.30;99.90
69204;DHT22;56317;27.658;85.326;2022-08-21T13:43:00;23.20;99.90
69204;DHT22;56317;27.658;85.326;2022-08-21T13:45:33;23.20;99.90
69204;DHT22;56317;27.658;85.326;2022-08-21T13:48:01;23.20;99.90
69204;DHT22;56317;27.658;85.326;2022-08-21T13:50:30;23.20;99.90
69204;DHT22;56317;27.658;85.326;2022-08-21T13:53:03;23.20;99.90
69204;DHT22;56317;27.658;85.326;2022-08-21T13:55:38;23.20;99.90
69204;DHT22;56317;27.658;85.326;2022-08-21T13:58:08;23.20;99.90
69204;DHT22;56317;27.658;85.326;2022-08-21T14:00:48;23.20;99.90
69204;DHT22;56317;27.658;85.326;2022-08-21T14:03:36;23.10;99.90
69204;DHT22;56317;27.658;85.326;2022-08-21T14:06:22;23.10;99.90
69204;DHT22;56317;27.658;85.326;2022-08-21T14:09:03;23.10;99.90
69204;DHT22;56317;27.658;85.326;2022-08-21T14:11:35;23.10;99.90
69204;DHT22;56317;27.658;85.326;2022-08-21T14:14:13;23.10;99.90
69204;DHT22;56317;27.658;85.326;2022-08-21T14:17:06;23.10;99.90
69204;DHT22;56317;27.658;85.326;2022-08-21T14:19:42;23.10;99.90
69204;DHT22;56317;27.658;85.326;2022-08-21T14:25:10;23.00;99.90
69204;DHT22;56317;27.658;85.326;2022-08-21T14:28:24;23.00;99.90
69204;DHT22;56317;27.658;85.326;2022-08-21T14:30:35;23.00;99.90
69204;DHT22;56317;27.658;85.326;2022-08-21T14:33:04;23.00;99.90
69204;DHT22;56317;27.658;85.326;2022-08-21T14:35:35;23.00;99.90
69204;DHT22;56317;27.658;85.326;2022-08-21T14:38:11;23.00;99.90
69204;DHT22;56317;27.658;85.326;2022-08-21T14:40:38;22.90;99.90
69204;DHT22;56317;27.658;85.326;2022-08-21T14:43:05;22.90;99.90
69204;DHT22;56317;27.658;85.326;2022-08-21T14:45:34;22.90;99.90
69204;DHT22;56317;27.658;85.326;2022-08-21T14:48:03;22.90;99.90
69204;DHT22;56317;27.658;85.326;2022-08-21T14:50:30;22.90;99.90
69204;DHT22;56317;27.658;85.326;2022-08-21T14:52:57;22.90;99.90
69204;DHT22;56317;27.658;85.326;2022-08-21T14:55:25;22.80;99.90
69204;DHT22;56317;27.658;85.326;2022-08-21T14:57:54;22.80;99.90
69204;DHT22;56317;27.658;85.326;2022-08-21T15:00:23;22.80;99.90
69204;DHT22;56317;27.658;85.326;2022-08-21T15:02:52;22.80;99.90
69204;DHT22;56317;27.658;85.326;2022-08-21T15:05:19;22.80;99.90
69204;DHT22;56317;27.658;85.326;2022-08-21T15:07:46;22.70;99.90
69204;DHT22;56317;27.658;85.326;2022-08-21T15:10:13;22.70;99.90
69204;DHT22;56317;27.658;85.326;2022-08-21T15:12:40;22.60;99.90
69204;DHT22;56317;27.658;85.326;2022-08-21T15:15:08;22.60;99.90
69204;DHT22;56317;27.658;85.326;2022-08-21T15:17:36;22.60;99.90
69204;DHT22;56317;27.658;85.326;2022-08-21T15:20:04;22.60;99.90
69204;DHT22;56317;27.658;85.326;2022-08-21T15:22:32;22.60;99.90
69204;DHT22;56317;27.658;85.326;2022-08-21T15:24:59;22.60;99.90
69204;DHT22;56317;27.658;85.326;2022-08-21T15:27:28;22.50;99.90
69204;DHT22;56317;27.658;85.326;2022-08-21T15:29:56;22.50;99.90
69204;DHT22;56317;27.658;85.326;2022-08-21T15:32:28;22.50;99.90
69204;DHT22;56317;27.658;85.326;2022-08-21T15:34:57;22.50;99.90
69204;DHT22;56317;27.658;85.326;2022-08-21T15:37:25;22.50;99.90
69204;DHT22;56317;27.658;85.326;2022-08-21T15:39:52;22.50;99.90
69204;DHT22;56317;27.658;85.326;2022-08-21T15:42:20;22.50;99.90
69204;DHT22;56317;27.658;85.326;2022-08-21T15:44:48;22.50;99.90
69204;DHT22;56317;27.658;85.326;2022-08-21T15:47:19;22.50;99.90
69204;DHT22;56317;27.658;85.326;2022-08-21T15:49:47;22.50;99.90
69204;DHT22;56317;27.658;85.326;2022-08-21T15:52:17;22.60;99.90
69204;DHT22;56317;27.658;85.326;2022-08-21T15:54:45;22.60;99.90
69204;DHT22;56317;27.658;85.326;2022-08-21T15:57:17;22.60;99.90
69204;DHT22;56317;27.658;85.326;2022-08-21T15:59:48;22.60;99.90
69204;DHT22;56317;27.658;85.326;2022-08-21T16:02:24;22.60;99.90
69204;DHT22;56317;27.658;85.326;2022-08-21T16:04:52;22.70;99.90
69204;DHT22;56317;27.658;85.326;2022-08-21T16:07:20;22.70;99.90
69204;DHT22;56317;27.658;85.326;2022-08-21T16:09:47;22.70;99.90
69204;DHT22;56317;27.658;85.326;2022-08-21T16:12:22;22.70;99.90
69204;DHT22;56317;27.658;85.326;2022-08-21T16:14:52;22.70;99.90
69204;DHT22;56317;27.658;85.326;2022-08-21T16:17:22;22.70;99.90
69204;DHT22;56317;27.658;85.326;2022-08-21T16:19:51;22.70;99.90
69204;DHT22;56317;27.658;85.326;2022-08-21T16:22:18;22.60;99.90
69204;DHT22;56317;27.658;85.326;2022-08-21T16:24:45;22.60;99.90
69204;DHT22;56317;27.658;85.326;2022-08-21T16:27:12;22.50;99.90
69204;DHT22;56317;27.658;85.326;2022-08-21T16:29:40;22.50;99.90
69204;DHT22;56317;27.658;85.326;2022-08-21T16:32:10;22.50;99.90
69204;DHT22;56317;27.658;85.326;2022-08-21T16:34:42;22.40;99.90
69204;DHT22;56317;27.658;85.326;2022-08-21T16:37:11;22.30;99.90
69204;DHT22;56317;27.658;85.326;2022-08-21T16:39:38;22.30;99.90
69204;DHT22;56317;27.658;85.326;2022-08-21T16:42:05;22.30;99.90
69204;DHT22;56317;27.658;85.326;2022-08-21T16:44:33;22.20;99.90
69204;DHT22;56317;27.658;85.326;2022-08-21T16:47:00;22.20;99.90
69204;DHT22;56317;27.658;85.326;2022-08-21T16:49:28;22.10;99.90
69204;DHT22;56317;27.658;85.326;2022-08-21T16:51:55;22.10;99.90
69204;DHT22;56317;27.658;85.326;2022-08-21T16:54:22;22.10;99.90
69204;DHT22;56317;27.658;85.326;2022-08-21T16:56:50;22.10;99.90
69204;DHT22;56317;27.658;85.326;2022-08-21T16:59:17;22.10;99.90
69204;DHT22;56317;27.658;85.326;2022-08-21T17:01:45;22.10;99.90
69204;DHT22;56317;27.658;85.326;2022-08-21T17:04:12;22.10;99.90
69204;DHT22;56317;27.658;85.326;2022-08-21T17:06:40;22.20;99.90
69204;DHT22;56317;27.658;85.326;2022-08-21T17:09:07;22.30;99.90
69204;DHT22;56317;27.658;85.326;2022-08-21T17:11:37;22.30;99.90